createdAt,value
2022-12-31T00:00:23.912Z,77.57
2022-12-31T00:02:54.520Z,77.21
2022-12-31T00:05:25.204Z,77.28
2022-12-31T00:07:57.442Z,77.00
2022-12-31T00:10:27.968Z,76.32
2022-12-31T00:13:14.940Z,76.10
2022-12-31T00:15:46.227Z,75.87
2022-12-31T00:18:18.998Z,75.51
2022-12-31T00:20:49.491Z,74.75
2022-12-31T00:23:21.620Z,75.18
2022-12-31T00:25:52.188Z,76.40
2022-12-31T00:28:22.843Z,76.56
2022-12-31T00:30:57.193Z,75.83
2022-12-31T00:33:44.412Z,75.55
2022-12-31T00:36:17.025Z,75.34
2022-12-31T00:38:50.594Z,74.56
2022-12-31T00:41:23.198Z,74.30
2022-12-31T00:43:54.123Z,73.84
2022-12-31T00:46:25.913Z,72.71
2022-12-31T00:49:13.757Z,72.26
2022-12-31T00:52:01.289Z,71.80
2022-12-31T00:54:33.625Z,70.94
2022-12-31T00:57:04.307Z,70.52
2022-12-31T00:59:34.928Z,70.92
2022-12-31T01:02:05.664Z,71.71
2022-12-31T01:04:40.777Z,71.58
2022-12-31T01:07:11.513Z,71.80
2022-12-31T01:09:46.715Z,71.96
2022-12-31T01:12:23.341Z,71.70
2022-12-31T01:14:55.726Z,70.93
2022-12-31T01:17:26.327Z,70.94
2022-12-31T01:19:59.905Z,71.08
2022-12-31T01:22:30.357Z,69.90
2022-12-31T01:25:05.117Z,70.16
2022-12-31T01:27:35.729Z,70.76
2022-12-31T01:30:06.953Z,69.23
2022-12-31T01:32:37.489Z,69.32
2022-12-31T01:35:08.736Z,69.91
2022-12-31T01:37:56.013Z,69.63
2022-12-31T01:40:28.295Z,69.22
2022-12-31T01:42:58.879Z,69.34
2022-12-31T01:45:30.014Z,69.54
2022-12-31T01:48:02.613Z,70.05
2022-12-31T01:50:36.625Z,70.14
2022-12-31T01:53:10.199Z,68.70
2022-12-31T01:55:51.048Z,67.69
2022-12-31T01:58:25.879Z,67.65
2022-12-31T02:01:20.192Z,67.10
2022-12-31T02:04:08.677Z,67.62
2022-12-31T02:06:43.588Z,68.35
2022-12-31T02:09:16.871Z,68.78
2022-12-31T02:11:49.081Z,69.09
2022-12-31T02:14:23.679Z,69.59
2022-12-31T02:16:59.362Z,70.09
2022-12-31T02:19:53.780Z,69.82
2022-12-31T02:22:39.598Z,69.81
2022-12-31T02:25:37.599Z,69.48
2022-12-31T02:28:22.737Z,69.19
2022-12-31T02:31:16.872Z,69.08
2022-12-31T02:33:54.576Z,69.30
2022-12-31T02:36:30.586Z,69.30
2022-12-31T02:39:05.706Z,69.11
2022-12-31T02:41:55.356Z,69.16
2022-12-31T02:44:35.056Z,69.14
2022-12-31T02:47:23.243Z,69.11
2022-12-31T02:50:21.364Z,69.22
2022-12-31T02:53:02.793Z,69.10
2022-12-31T02:55:42.845Z,69.19
2022-12-31T02:58:16.371Z,68.93
2022-12-31T03:01:15.017Z,69.12
2022-12-31T03:04:10.041Z,68.72
2022-12-31T03:06:44.883Z,68.10
2022-12-31T03:09:18.424Z,66.95
2022-12-31T03:12:10.023Z,67.58
2022-12-31T03:14:45.626Z,65.90
2022-12-31T03:17:17.731Z,66.77
2022-12-31T03:20:26.442Z,66.57
2022-12-31T03:22:57.346Z,66.78
2022-12-31T03:25:41.854Z,67.39
2022-12-31T03:28:13.664Z,67.49
2022-12-31T03:30:46.252Z,67.55
2022-12-31T03:33:17.326Z,67.35
2022-12-31T03:35:54.948Z,67.07
2022-12-31T03:38:25.933Z,67.25
2022-12-31T03:40:57.162Z,67.39
2022-12-31T03:43:28.288Z,67.70
2022-12-31T03:46:00.651Z,67.93
2022-12-31T03:48:31.835Z,68.45
2022-12-31T03:51:07.212Z,68.85
2022-12-31T03:53:38.461Z,68.60
2022-12-31T03:56:09.521Z,68.83
2022-12-31T03:58:40.414Z,68.63
2022-12-31T04:01:11.323Z,69.04
2022-12-31T04:03:42.297Z,69.33
2022-12-31T04:06:15.736Z,69.74
2022-12-31T04:08:46.391Z,69.43
2022-12-31T04:11:20.835Z,68.85
2022-12-31T04:13:51.669Z,69.56
2022-12-31T04:16:22.741Z,69.24
2022-12-31T04:18:53.293Z,69.18
2022-12-31T04:21:30.095Z,68.76
2022-12-31T04:24:04.056Z,68.92
2022-12-31T04:26:34.679Z,69.53
2022-12-31T04:29:05.257Z,69.66
2022-12-31T04:31:35.813Z,69.81
2022-12-31T04:34:23.413Z,70.57
2022-12-31T04:37:12.113Z,70.15
2022-12-31T04:39:42.640Z,70.91
2022-12-31T04:42:13.339Z,71.05
2022-12-31T04:44:44.422Z,71.32
2022-12-31T04:47:18.767Z,71.64
2022-12-31T04:49:53.900Z,71.45
2022-12-31T04:52:26.200Z,71.21
2022-12-31T04:54:59.375Z,71.23
2022-12-31T04:57:29.987Z,71.24
2022-12-31T05:00:00.573Z,71.66
2022-12-31T05:02:33.715Z,71.77
2022-12-31T05:05:04.452Z,71.74
2022-12-31T05:07:54.456Z,71.46
2022-12-31T05:10:25.570Z,71.26
2022-12-31T05:13:15.309Z,71.89
2022-12-31T05:15:46.058Z,72.04
2022-12-31T05:18:17.238Z,71.54
2022-12-31T05:20:48.174Z,71.73
2022-12-31T05:23:21.097Z,71.69
2022-12-31T05:25:51.883Z,71.44
2022-12-31T05:28:22.791Z,70.82
2022-12-31T05:31:11.285Z,71.14
2022-12-31T05:33:41.909Z,71.27
2022-12-31T05:36:29.187Z,70.77
2022-12-31T05:39:01.775Z,71.13
2022-12-31T05:41:32.247Z,71.00
2022-12-31T05:44:02.795Z,70.35
2022-12-31T05:46:33.487Z,70.93
2022-12-31T05:49:04.172Z,70.82
2022-12-31T05:51:34.949Z,70.61
2022-12-31T05:54:07.544Z,71.02
2022-12-31T05:56:38.165Z,71.19
2022-12-31T05:59:09.067Z,71.14
2022-12-31T06:01:39.700Z,70.58
2022-12-31T06:04:10.144Z,70.70
2022-12-31T06:06:40.824Z,70.73
2022-12-31T06:09:29.849Z,71.56
2022-12-31T06:12:00.446Z,71.46
2022-12-31T06:14:30.920Z,71.69
2022-12-31T06:17:01.762Z,72.07
2022-12-31T06:19:32.955Z,72.17
2022-12-31T06:22:03.595Z,72.33
2022-12-31T06:24:35.864Z,72.31
2022-12-31T06:27:06.385Z,72.00
2022-12-31T06:29:37.212Z,72.43
2022-12-31T06:32:13.171Z,72.56
2022-12-31T06:34:45.693Z,73.03
2022-12-31T06:37:16.321Z,73.44
2022-12-31T06:39:48.551Z,73.86
2022-12-31T06:42:19.133Z,74.00
2022-12-31T06:44:49.760Z,73.90
2022-12-31T06:47:20.339Z,74.23
2022-12-31T06:49:51.026Z,74.35
2022-12-31T06:52:22.006Z,74.64
2022-12-31T06:54:55.080Z,75.14
2022-12-31T06:57:26.172Z,75.30
2022-12-31T06:59:57.363Z,75.32
2022-12-31T07:02:41.405Z,76.11
2022-12-31T07:05:40.111Z,76.21
2022-12-31T07:08:39.823Z,76.38
2022-12-31T07:11:21.571Z,76.40
2022-12-31T07:14:06.883Z,76.58
2022-12-31T07:16:52.872Z,76.14
2022-12-31T07:19:36.731Z,76.28
2022-12-31T07:22:08.243Z,76.52
2022-12-31T07:24:42.307Z,77.15
2022-12-31T07:27:43.714Z,77.97
2022-12-31T07:30:18.131Z,77.87
2022-12-31T07:33:29.553Z,77.93
2022-12-31T07:39:08.419Z,77.60
2022-12-31T07:41:51.389Z,77.59
2022-12-31T07:44:37.730Z,77.47
2022-12-31T07:47:16.899Z,77.80
2022-12-31T07:49:48.161Z,78.10
2022-12-31T07:52:37.228Z,78.54
2022-12-31T07:55:08.513Z,78.62
2022-12-31T07:57:46.089Z,78.79
2022-12-31T08:00:21.773Z,78.49
2022-12-31T08:03:31.403Z,78.75
2022-12-31T08:06:29.528Z,79.27
2022-12-31T08:09:09.547Z,79.24
2022-12-31T08:12:03.981Z,79.18
2022-12-31T08:14:36.966Z,79.05
2022-12-31T08:17:14.587Z,79.32
2022-12-31T08:19:46.615Z,78.99
2022-12-31T08:22:59.253Z,78.67
2022-12-31T08:25:39.764Z,78.63
2022-12-31T08:28:34.401Z,79.28
2022-12-31T08:31:10.038Z,79.54
2022-12-31T08:33:51.518Z,79.36
2022-12-31T08:36:49.167Z,79.93
2022-12-31T08:39:33.760Z,80.10
2022-12-31T08:42:07.758Z,80.25
2022-12-31T08:44:50.653Z,80.45
2022-12-31T08:47:38.267Z,80.54
2022-12-31T08:50:17.431Z,80.93
2022-12-31T08:52:49.052Z,80.91
2022-12-31T08:55:38.686Z,81.50
2022-12-31T08:58:25.114Z,81.51
2022-12-31T09:00:59.920Z,81.55
2022-12-31T09:03:44.833Z,81.97
2022-12-31T09:06:30.359Z,82.36
2022-12-31T09:09:24.507Z,82.56
2022-12-31T09:12:01.570Z,82.57
2022-12-31T09:14:53.786Z,82.58
2022-12-31T09:17:49.355Z,82.67
2022-12-31T09:20:43.842Z,82.68
2022-12-31T09:23:18.520Z,82.49
2022-12-31T09:25:58.222Z,83.11
2022-12-31T09:28:43.704Z,83.51
2022-12-31T09:31:19.135Z,84.05
2022-12-31T09:33:57.150Z,84.70
2022-12-31T09:36:34.763Z,84.99
2022-12-31T09:39:16.527Z,85.55
2022-12-31T09:42:15.436Z,85.85
2022-12-31T09:45:10.028Z,85.67
2022-12-31T09:48:14.544Z,85.97
2022-12-31T09:51:25.516Z,86.27
2022-12-31T09:54:38.870Z,86.77
2022-12-31T09:57:30.436Z,86.72
2022-12-31T10:00:06.398Z,87.50
2022-12-31T10:02:55.216Z,87.89
2022-12-31T10:05:45.320Z,88.36
2022-12-31T10:08:22.034Z,88.40
2022-12-31T10:11:00.211Z,88.90
2022-12-31T10:13:51.663Z,88.67
2022-12-31T10:16:47.689Z,88.94
2022-12-31T10:19:42.319Z,88.14
2022-12-31T10:22:34.032Z,88.11
2022-12-31T10:25:38.463Z,87.77
2022-12-31T10:28:26.540Z,87.21
2022-12-31T10:31:09.483Z,86.72
2022-12-31T10:33:47.071Z,86.40
2022-12-31T10:36:29.826Z,86.53
2022-12-31T10:39:14.482Z,86.73
2022-12-31T10:42:20.037Z,87.08
2022-12-31T10:45:40.876Z,87.47
2022-12-31T10:48:56.426Z,87.91
2022-12-31T10:52:03.687Z,88.37
2022-12-31T10:55:28.789Z,88.19
2022-12-31T10:58:48.437Z,88.25
2022-12-31T11:01:27.952Z,88.00
2022-12-31T11:04:36.054Z,88.09
2022-12-31T11:07:35.425Z,87.56
2022-12-31T11:10:49.657Z,87.38
2022-12-31T11:14:00.537Z,87.50
2022-12-31T11:16:59.167Z,87.20
2022-12-31T11:19:41.825Z,87.34
2022-12-31T11:23:05.845Z,87.73
2022-12-31T11:25:50.554Z,88.38
2022-12-31T11:28:45.984Z,88.96
2022-12-31T11:31:57.120Z,88.65
2022-12-31T11:34:54.464Z,88.59
2022-12-31T11:37:39.804Z,88.88
2022-12-31T11:40:33.977Z,88.04
2022-12-31T11:43:07.627Z,88.06
2022-12-31T11:47:01.102Z,88.11
2022-12-31T11:49:19.106Z,87.65
2022-12-31T11:52:16.003Z,87.51
2022-12-31T11:55:21.485Z,87.02
2022-12-31T12:01:02.018Z,87.21
2022-12-31T12:03:39.437Z,87.96
2022-12-31T12:06:13.809Z,88.13
2022-12-31T12:08:46.837Z,87.92
2022-12-31T12:11:26.173Z,87.83
2022-12-31T12:14:18.115Z,88.59
2022-12-31T12:16:57.855Z,88.26
2022-12-31T12:19:49.825Z,87.79
2022-12-31T12:25:39.770Z,86.82
2022-12-31T12:28:44.419Z,86.18
2022-12-31T12:31:28.379Z,84.66
2022-12-31T12:37:35.358Z,83.30
2022-12-31T12:40:20.337Z,82.14
2022-12-31T12:43:11.724Z,81.70
2022-12-31T12:46:01.032Z,80.82
2022-12-31T12:48:40.427Z,80.38
2022-12-31T12:51:38.536Z,80.38
2022-12-31T12:54:27.234Z,80.06
2022-12-31T12:57:28.508Z,79.87
2022-12-31T13:00:37.994Z,78.87
2022-12-31T13:07:08.833Z,79.20
2022-12-31T13:10:09.911Z,79.08
2022-12-31T13:13:23.711Z,78.61
2022-12-31T13:16:26.826Z,78.87
2022-12-31T13:19:16.521Z,79.52
2022-12-31T13:22:08.888Z,79.04
2022-12-31T13:25:09.904Z,79.32
2022-12-31T13:27:51.873Z,79.48
2022-12-31T13:31:00.475Z,79.59
2022-12-31T13:33:56.351Z,79.60
2022-12-31T13:36:56.789Z,79.34
2022-12-31T13:39:41.957Z,79.44
2022-12-31T13:42:20.758Z,79.79
2022-12-31T13:45:16.280Z,80.05
2022-12-31T13:47:54.349Z,80.55
2022-12-31T13:51:11.588Z,81.40
2022-12-31T13:54:00.223Z,81.77
2022-12-31T13:56:44.548Z,81.61
2022-12-31T13:59:50.929Z,81.43
2022-12-31T14:02:48.660Z,81.76
2022-12-31T14:05:38.323Z,81.22
2022-12-31T14:08:16.417Z,81.65
2022-12-31T14:11:10.839Z,81.91
2022-12-31T14:14:06.591Z,82.73
2022-12-31T14:16:57.736Z,83.88
2022-12-31T14:20:10.306Z,84.62
2022-12-31T14:23:14.163Z,84.89
2022-12-31T14:26:05.045Z,85.11
2022-12-31T14:28:48.790Z,85.81
2022-12-31T14:31:37.730Z,86.26
2022-12-31T14:34:25.004Z,86.08
2022-12-31T14:37:10.820Z,86.16
2022-12-31T14:40:11.259Z,86.05
2022-12-31T14:43:13.828Z,85.09
2022-12-31T14:46:03.571Z,84.55
2022-12-31T14:48:50.742Z,83.82
2022-12-31T14:51:31.684Z,83.10
2022-12-31T14:54:09.758Z,82.74
2022-12-31T14:56:56.477Z,82.69
2022-12-31T14:59:40.389Z,82.49
2022-12-31T15:02:36.694Z,82.61
2022-12-31T15:05:23.738Z,82.63
2022-12-31T15:08:16.413Z,82.59
2022-12-31T15:11:05.961Z,83.04
2022-12-31T15:14:01.699Z,82.98
2022-12-31T15:17:10.908Z,82.63
2022-12-31T15:20:18.676Z,82.29
2022-12-31T15:22:57.574Z,81.67
2022-12-31T15:25:44.961Z,81.43
2022-12-31T15:28:37.690Z,81.97
2022-12-31T15:31:32.372Z,81.99
2022-12-31T15:34:53.204Z,82.23
2022-12-31T15:37:51.413Z,82.54
2022-12-31T15:40:35.656Z,82.90
2022-12-31T15:43:32.579Z,83.65
2022-12-31T15:46:27.801Z,83.54
2022-12-31T15:49:29.504Z,84.18
2022-12-31T15:55:58.532Z,85.78
2022-12-31T15:58:47.202Z,86.35
2022-12-31T16:01:27.300Z,86.50
2022-12-31T16:06:58.681Z,86.62
2022-12-31T16:09:49.160Z,86.85
2022-12-31T16:12:57.243Z,87.17
2022-12-31T16:15:37.794Z,87.16
2022-12-31T16:18:22.842Z,87.63
2022-12-31T16:21:04.159Z,87.64
2022-12-31T16:23:42.488Z,87.49
2022-12-31T16:29:42.617Z,86.95
2022-12-31T16:32:23.343Z,85.97
2022-12-31T16:35:23.028Z,84.89
2022-12-31T16:38:42.130Z,84.87
2022-12-31T16:44:40.585Z,83.42
2022-12-31T16:47:39.530Z,82.96
2022-12-31T16:50:25.215Z,82.53
2022-12-31T16:53:21.710Z,82.11
2022-12-31T16:56:48.782Z,81.53
2022-12-31T16:59:38.157Z,81.13
2022-12-31T17:05:37.485Z,81.49
2022-12-31T17:08:34.348Z,81.97
2022-12-31T17:11:23.961Z,81.85
2022-12-31T17:14:04.760Z,81.62
2022-12-31T17:16:43.955Z,82.14
2022-12-31T17:22:56.395Z,82.65
2022-12-31T17:25:37.283Z,82.83
2022-12-31T17:28:25.645Z,83.27
2022-12-31T17:31:05.772Z,82.51
2022-12-31T17:33:45.107Z,83.10
2022-12-31T17:36:50.505Z,82.32
2022-12-31T17:39:45.021Z,81.87
2022-12-31T17:42:39.973Z,81.90
2022-12-31T17:45:24.536Z,81.83
2022-12-31T17:48:11.818Z,81.85
2022-12-31T17:51:01.248Z,81.61
2022-12-31T17:54:02.008Z,81.78
2022-12-31T17:56:34.864Z,82.26
2022-12-31T17:59:12.683Z,82.32
2022-12-31T18:01:53.776Z,82.22
2022-12-31T18:04:40.083Z,82.32
2022-12-31T18:07:27.202Z,82.73
2022-12-31T18:10:05.577Z,83.10
2022-12-31T18:12:43.505Z,83.15
2022-12-31T18:15:32.137Z,83.65
2022-12-31T18:18:10.427Z,84.32
2022-12-31T18:20:52.916Z,85.03
2022-12-31T18:23:32.561Z,85.63
2022-12-31T18:26:11.970Z,86.27
2022-12-31T18:28:53.994Z,86.61
2022-12-31T18:31:43.773Z,87.25
2022-12-31T18:34:21.546Z,86.37
2022-12-31T18:37:05.702Z,86.28
2022-12-31T18:39:41.608Z,86.31
2022-12-31T18:42:43.140Z,85.97
2022-12-31T18:45:25.679Z,85.32
2022-12-31T18:48:14.352Z,85.03
2022-12-31T18:51:01.582Z,84.80
2022-12-31T18:53:47.240Z,84.47
2022-12-31T18:56:26.306Z,84.20
2022-12-31T18:59:19.867Z,84.35
2022-12-31T19:01:56.355Z,83.95
2022-12-31T19:04:44.937Z,83.53
2022-12-31T19:07:25.383Z,83.03
2022-12-31T19:10:30.456Z,82.17
2022-12-31T19:13:12.775Z,81.71
2022-12-31T19:15:50.073Z,82.42
2022-12-31T19:21:31.171Z,80.88
2022-12-31T19:24:18.384Z,80.48
2022-12-31T19:27:01.867Z,80.00
2022-12-31T19:29:50.626Z,79.99
2022-12-31T19:32:27.572Z,79.52
2022-12-31T19:35:07.355Z,80.16
2022-12-31T19:37:40.167Z,79.76
2022-12-31T19:40:19.096Z,80.11
2022-12-31T19:43:00.260Z,79.50
2022-12-31T19:45:54.374Z,79.57
2022-12-31T19:48:52.349Z,79.13
2022-12-31T19:51:29.062Z,79.39
2022-12-31T19:54:18.404Z,79.09
2022-12-31T19:56:56.550Z,79.07
2022-12-31T19:59:47.421Z,78.66
2022-12-31T20:02:21.890Z,78.83
2022-12-31T20:08:35.128Z,78.31
2022-12-31T20:11:14.451Z,78.75
2022-12-31T20:14:13.419Z,78.20
2022-12-31T20:17:00.787Z,78.18
2022-12-31T20:19:36.936Z,78.24
2022-12-31T20:22:24.720Z,78.28
2022-12-31T20:25:10.624Z,77.42
2022-12-31T20:27:54.174Z,76.65
2022-12-31T20:30:35.704Z,76.77
2022-12-31T20:33:19.007Z,76.73
2022-12-31T20:36:23.190Z,76.74
2022-12-31T20:39:25.337Z,76.96
2022-12-31T20:42:12.982Z,76.94
2022-12-31T20:44:59.180Z,76.93
2022-12-31T20:47:46.891Z,77.13
2022-12-31T20:50:33.063Z,77.02
2022-12-31T20:53:18.235Z,77.11
2022-12-31T20:56:20.929Z,76.72
2022-12-31T20:59:31.735Z,76.33
2022-12-31T21:02:21.527Z,76.88
2022-12-31T21:04:58.187Z,76.76
2022-12-31T21:07:39.901Z,76.64
2022-12-31T21:10:32.867Z,77.12
2022-12-31T21:13:45.996Z,76.91
2022-12-31T21:16:29.336Z,75.68
2022-12-31T21:19:11.782Z,75.33
2022-12-31T21:21:55.888Z,74.88
2022-12-31T21:24:30.547Z,74.64
2022-12-31T21:27:05.587Z,74.48
2022-12-31T21:30:17.827Z,74.91
2022-12-31T21:33:06.084Z,74.33
2022-12-31T21:35:53.277Z,73.71
2022-12-31T21:38:38.391Z,73.80
2022-12-31T21:41:35.040Z,73.79
2022-12-31T21:44:10.723Z,73.58
2022-12-31T21:47:33.149Z,73.75
2022-12-31T21:49:55.490Z,73.14
2022-12-31T21:52:47.154Z,73.35
2022-12-31T21:55:34.304Z,73.01
2022-12-31T21:58:27.418Z,73.22
2022-12-31T22:01:40.970Z,73.36
2022-12-31T22:05:00.230Z,73.16
2022-12-31T22:10:22.283Z,73.81
2022-12-31T22:13:15.378Z,73.49
2022-12-31T22:15:48.208Z,73.64
2022-12-31T22:18:43.024Z,73.36
2022-12-31T22:21:24.923Z,73.01
2022-12-31T22:24:09.385Z,72.87
2022-12-31T22:26:47.579Z,72.93
2022-12-31T22:29:48.049Z,72.82
2022-12-31T22:32:23.866Z,73.29
2022-12-31T22:35:13.199Z,73.36
2022-12-31T22:38:18.667Z,72.55
2022-12-31T22:40:54.415Z,72.44
2022-12-31T22:43:41.886Z,72.58
2022-12-31T22:46:37.625Z,73.01
2022-12-31T22:49:56.809Z,72.28
2022-12-31T22:52:28.930Z,71.58
2022-12-31T22:55:13.719Z,71.44
2022-12-31T22:57:49.692Z,71.07
2022-12-31T23:03:35.257Z,71.89
2022-12-31T23:06:26.644Z,70.88
2022-12-31T23:09:14.570Z,70.16
2022-12-31T23:11:51.818Z,69.58
2022-12-31T23:14:42.474Z,69.26
2022-12-31T23:17:40.109Z,68.90
2022-12-31T23:20:36.280Z,69.70
2022-12-31T23:23:16.177Z,68.96
2022-12-31T23:25:53.005Z,68.47
2022-12-31T23:31:40.519Z,67.22
2022-12-31T23:34:34.758Z,67.35
2022-12-31T23:37:09.758Z,68.14
2022-12-31T23:39:49.196Z,69.08
2022-12-31T23:42:24.883Z,68.42
2022-12-31T23:45:06.541Z,67.76
2022-12-31T23:47:48.917Z,67.02
2022-12-31T23:50:27.206Z,67.21
2022-12-31T23:53:11.239Z,68.41
2022-12-31T23:55:58.146Z,67.64
2022-12-31T23:58:36.317Z,67.45
